createdAt,value
2019-03-17T00:00:22.592Z,12.23
2019-03-17T00:01:22.590Z,12.17
2019-03-17T00:02:22.584Z,12.20
2019-03-17T00:03:22.879Z,12.27
2019-03-17T00:04:31.466Z,12.14
2019-03-17T00:05:22.564Z,12.14
2019-03-17T00:06:22.568Z,12.17
2019-03-17T00:07:22.556Z,12.27
2019-03-17T00:08:22.549Z,12.17
2019-03-17T00:09:22.552Z,12.20
2019-03-17T00:10:22.538Z,12.19
2019-03-17T00:11:22.540Z,12.21
2019-03-17T00:12:23.337Z,12.27
2019-03-17T00:13:23.530Z,12.28
2019-03-17T00:14:22.515Z,12.23
2019-03-17T00:15:22.509Z,12.24
2019-03-17T00:16:22.509Z,12.20
2019-03-17T00:17:25.060Z,12.24
2019-03-17T00:18:22.496Z,12.24
2019-03-17T00:19:22.484Z,12.28
2019-03-17T00:20:22.479Z,12.32
2019-03-17T00:21:22.481Z,12.20
2019-03-17T00:36:51.360Z,12.34
2019-03-17T00:37:51.054Z,12.32
2019-03-17T00:38:51.045Z,12.34
2019-03-17T00:39:51.042Z,12.37
2019-03-17T00:40:51.034Z,12.23
2019-03-17T00:41:51.033Z,12.35
2019-03-17T00:42:51.024Z,12.37
2019-03-17T00:43:51.027Z,12.38
2019-03-17T00:44:51.025Z,12.41
2019-03-17T00:45:51.010Z,12.39
2019-03-17T00:46:51.000Z,12.41
2019-03-17T00:47:52.210Z,12.38
2019-03-17T00:48:50.989Z,12.38
2019-03-17T00:49:50.986Z,12.31
2019-03-17T00:50:50.979Z,12.34
2019-03-17T00:51:50.974Z,12.34
2019-03-17T00:54:50.954Z,12.32
2019-03-17T01:01:43.177Z,12.42
2019-03-17T01:02:43.175Z,12.41
2019-03-17T01:03:43.166Z,12.41
2019-03-17T01:04:55.444Z,12.39
2019-03-17T01:05:43.152Z,12.37
2019-03-17T01:06:43.154Z,12.34
2019-03-17T01:07:43.449Z,12.41
2019-03-17T01:08:43.137Z,12.37
2019-03-17T01:09:43.129Z,12.35
2019-03-17T01:10:43.130Z,12.41
2019-03-17T01:11:43.122Z,12.37
2019-03-17T01:12:44.883Z,12.37
2019-03-17T01:13:43.108Z,12.31
2019-03-17T01:15:43.097Z,12.28
2019-03-17T01:16:43.090Z,12.34
2019-03-17T01:17:43.088Z,12.38
2019-03-17T01:18:43.079Z,12.35
2019-03-17T01:19:43.075Z,12.38
2019-03-17T01:20:43.067Z,12.24
2019-03-17T01:21:43.064Z,12.21
2019-03-17T01:23:43.115Z,12.27
2019-03-17T01:24:43.048Z,12.31
2019-03-17T01:25:43.040Z,12.29
2019-03-17T01:26:43.038Z,12.21
2019-03-17T01:27:43.028Z,12.29
2019-03-17T01:49:11.823Z,12.09
2019-03-17T01:51:11.512Z,12.05
2019-03-17T01:52:11.572Z,12.13
2019-03-17T01:53:11.501Z,12.12
2019-03-17T01:54:11.497Z,12.14
2019-03-17T02:00:14.672Z,12.32
2019-03-17T02:01:14.668Z,12.24
2019-03-17T02:05:25.425Z,12.19
2019-03-17T02:06:25.419Z,12.10
2019-03-17T02:12:19.230Z,12.17
2019-03-17T02:13:19.224Z,12.23
2019-03-17T02:14:19.216Z,12.23
2019-03-17T02:15:19.213Z,12.17
2019-03-17T02:16:19.206Z,12.16
2019-03-17T02:17:19.201Z,12.20
2019-03-17T02:18:19.193Z,12.27
2019-03-17T02:19:19.188Z,12.27
2019-03-17T02:20:19.180Z,12.16
2019-03-17T02:21:19.628Z,12.23
2019-03-17T02:22:22.069Z,12.20
2019-03-17T02:23:19.169Z,12.20
2019-03-17T02:24:21.779Z,12.14
2019-03-17T02:25:22.990Z,12.19
2019-03-17T02:26:19.147Z,12.14
2019-03-17T02:27:19.223Z,12.17
2019-03-17T02:28:19.134Z,12.17
2019-03-17T02:29:19.133Z,12.17
2019-03-17T02:30:19.140Z,12.16
2019-03-17T02:31:19.122Z,12.10
2019-03-17T02:34:59.823Z,12.19
2019-03-17T02:35:59.824Z,12.19
2019-03-17T02:36:59.809Z,12.12
2019-03-17T02:37:59.809Z,12.17
2019-03-17T02:44:08.750Z,12.19
2019-03-17T02:45:08.749Z,12.12
2019-03-17T02:46:08.736Z,12.13
2019-03-17T02:47:08.731Z,12.14
2019-03-17T02:48:08.724Z,12.12
2019-03-17T02:49:08.721Z,12.13
2019-03-17T02:50:08.758Z,12.10
2019-03-17T02:51:08.710Z,12.17
2019-03-17T02:52:08.702Z,12.07
2019-03-17T02:53:08.700Z,12.12
2019-03-17T02:54:08.689Z,12.05
2019-03-17T02:55:08.989Z,12.13
2019-03-17T02:56:08.680Z,12.09
2019-03-17T02:57:08.675Z,12.02
2019-03-17T02:58:08.684Z,12.13
2019-03-17T02:59:08.663Z,12.05
2019-03-17T03:00:08.655Z,12.09
2019-03-17T03:01:08.653Z,12.07
2019-03-17T03:02:08.644Z,12.14
2019-03-17T03:03:08.646Z,12.07
2019-03-17T03:04:08.643Z,12.04
2019-03-17T03:05:08.665Z,11.99
2019-03-17T03:06:08.623Z,12.09
2019-03-17T03:07:08.617Z,12.04
2019-03-17T03:09:08.605Z,12.10
2019-03-17T03:10:08.613Z,11.99
2019-03-17T03:11:08.592Z,12.02
2019-03-17T03:12:08.597Z,12.07
2019-03-17T03:29:02.503Z,11.99
2019-03-17T03:30:02.206Z,12.05
2019-03-17T03:31:06.226Z,11.98
2019-03-17T03:32:02.181Z,11.98
2019-03-17T03:39:14.632Z,12.01
2019-03-17T04:06:25.640Z,11.75
2019-03-17T04:09:43.506Z,11.76
2019-03-17T04:22:48.180Z,11.62
2019-03-17T04:29:40.195Z,11.61
2019-03-17T04:33:59.869Z,11.57
2019-03-17T04:34:59.865Z,11.51
2019-03-17T04:35:59.865Z,11.61
2019-03-17T04:36:59.853Z,11.52
2019-03-17T04:37:59.843Z,11.43
2019-03-17T04:38:59.840Z,11.47
2019-03-17T04:40:42.539Z,11.46
2019-03-17T04:41:45.263Z,11.37
2019-03-17T04:42:42.225Z,11.43
2019-03-17T04:46:22.058Z,11.37
2019-03-17T04:47:22.052Z,11.40
2019-03-17T04:48:22.043Z,11.32
2019-03-17T04:49:22.040Z,11.33
2019-03-17T04:54:46.010Z,11.18
2019-03-17T04:58:41.733Z,11.07
2019-03-17T04:59:41.728Z,11.00
2019-03-17T05:01:44.167Z,10.88
2019-03-17T05:02:44.166Z,10.96
2019-03-17T05:03:45.566Z,10.94
2019-03-17T05:04:44.147Z,10.85
2019-03-17T05:05:44.135Z,10.84
2019-03-17T05:07:26.540Z,10.84
2019-03-17T05:08:26.535Z,10.71
2019-03-17T05:09:26.524Z,10.73
2019-03-17T05:11:26.512Z,10.61
2019-03-17T05:12:26.504Z,10.59
2019-03-17T05:13:26.497Z,10.56
2019-03-17T05:14:26.490Z,10.55
2019-03-17T05:15:26.483Z,10.41
2019-03-17T05:16:26.474Z,10.41
2019-03-17T05:17:26.469Z,10.40
2019-03-17T05:19:26.453Z,10.26
2019-03-17T05:22:52.124Z,10.09
2019-03-17T05:24:34.531Z,9.99
2019-03-17T05:25:34.520Z,10.04
2019-03-17T05:26:34.510Z,9.96
2019-03-17T05:27:34.508Z,9.89
2019-03-17T05:31:00.175Z,9.87
2019-03-17T05:32:00.169Z,9.76
2019-03-17T05:33:00.203Z,9.76
2019-03-17T05:36:25.829Z,9.78
2019-03-17T05:37:25.824Z,9.87
2019-03-17T05:38:25.816Z,9.78
2019-03-17T05:40:28.423Z,9.86
2019-03-17T05:41:25.792Z,9.79
2019-03-17T05:42:25.787Z,9.83
2019-03-17T05:43:25.776Z,9.78
2019-03-17T05:44:25.770Z,9.78
2019-03-17T05:45:25.764Z,9.78
2019-03-17T05:46:25.765Z,9.76
2019-03-17T05:47:25.745Z,9.78
2019-03-17T05:48:25.739Z,9.72
2019-03-17T05:49:25.730Z,9.83
2019-03-17T05:50:25.725Z,9.76
2019-03-17T05:51:25.713Z,9.83
2019-03-17T05:52:25.710Z,9.78
2019-03-17T05:53:25.700Z,9.78
2019-03-17T05:54:25.694Z,9.79
2019-03-17T05:55:25.683Z,9.72
2019-03-17T05:56:25.683Z,9.74
2019-03-17T05:57:25.668Z,9.76
2019-03-17T05:58:25.662Z,9.75
2019-03-17T05:59:25.653Z,9.72
2019-03-17T06:00:25.655Z,9.74
2019-03-17T06:01:25.638Z,9.60
2019-03-17T06:02:25.632Z,9.74
2019-03-17T06:09:17.851Z,9.72
2019-03-17T06:10:17.832Z,9.61
2019-03-17T06:11:17.823Z,9.61
2019-03-17T06:18:10.029Z,9.74
2019-03-17T06:19:10.024Z,9.72
2019-03-17T06:20:10.012Z,9.72
2019-03-17T06:21:10.008Z,9.71
2019-03-17T06:22:09.999Z,9.58
2019-03-17T06:23:09.991Z,9.74
2019-03-17T06:24:09.981Z,9.69
2019-03-17T06:26:37.462Z,9.66
2019-03-17T06:27:37.463Z,9.60
2019-03-17T06:28:37.446Z,9.56
2019-03-17T06:29:37.442Z,9.50
2019-03-17T06:30:37.430Z,9.60
2019-03-17T06:31:37.426Z,9.56
2019-03-17T06:32:37.417Z,9.53
2019-03-17T06:34:37.401Z,9.61
2019-03-17T06:35:37.394Z,9.53
2019-03-17T07:17:47.648Z,9.54
2019-03-17T07:20:37.255Z,9.47
2019-03-17T07:21:38.055Z,9.40
2019-03-17T07:22:37.236Z,9.29
2019-03-17T07:23:37.231Z,9.31
2019-03-17T07:24:37.221Z,9.26
2019-03-17T07:25:37.215Z,9.31
2019-03-17T07:26:37.205Z,9.26
2019-03-17T07:28:37.193Z,9.15
2019-03-17T07:29:37.181Z,9.18
2019-03-17T07:30:37.177Z,9.05
2019-03-17T07:31:37.166Z,9.01
2019-03-17T07:32:37.162Z,8.87
2019-03-17T07:33:37.150Z,8.83
2019-03-17T07:34:37.145Z,8.63
2019-03-17T07:35:37.137Z,8.52
2019-03-17T07:36:37.131Z,8.48
2019-03-17T07:37:37.121Z,8.40
2019-03-17T07:38:37.117Z,8.34
2019-03-17T07:39:37.109Z,8.33
2019-03-17T07:40:37.100Z,8.29
2019-03-17T07:41:37.089Z,8.18
2019-03-17T07:42:37.086Z,8.07
2019-03-17T07:43:37.075Z,8.05
2019-03-17T07:44:37.070Z,8.07
2019-03-17T07:45:37.060Z,8.12
2019-03-17T07:46:37.053Z,8.15
2019-03-17T07:47:37.044Z,8.15
2019-03-17T07:48:37.040Z,8.12
2019-03-17T07:49:37.029Z,7.98
2019-03-17T07:50:37.032Z,8.16
2019-03-17T07:51:37.015Z,8.00
2019-03-17T07:52:37.013Z,8.04
2019-03-17T07:53:36.997Z,8.10
2019-03-17T07:54:36.997Z,7.92
2019-03-17T07:55:36.983Z,8.05
2019-03-17T07:56:36.978Z,8.04
2019-03-17T07:57:37.042Z,7.95
2019-03-17T07:58:36.989Z,7.93
2019-03-17T07:59:36.952Z,7.85
2019-03-17T08:00:36.953Z,7.77
2019-03-17T08:01:36.936Z,7.80
2019-03-17T08:02:36.933Z,7.75
2019-03-17T08:03:36.923Z,7.67
2019-03-17T08:04:42.346Z,7.79
2019-03-17T08:05:36.921Z,7.85
2019-03-17T08:06:36.900Z,7.89
2019-03-17T08:07:36.894Z,7.74
2019-03-17T08:08:37.027Z,7.74
2019-03-17T08:09:37.807Z,7.85
2019-03-17T08:11:19.377Z,7.86
2019-03-17T08:12:19.269Z,7.92
2019-03-17T08:13:19.260Z,7.75
2019-03-17T08:14:19.252Z,7.75
2019-03-17T10:01:30.330Z,9.33
2019-03-17T10:02:30.932Z,9.40
2019-03-17T10:03:30.326Z,9.36
2019-03-17T10:13:49.316Z,9.78
2019-03-17T10:19:03.015Z,9.74
2019-03-17T10:20:03.008Z,9.76
2019-03-17T10:21:02.998Z,9.74
2019-03-17T10:22:02.993Z,9.86
2019-03-17T10:23:02.986Z,9.79
2019-03-17T10:24:02.981Z,9.79
2019-03-17T10:25:02.970Z,9.75
2019-03-17T10:26:02.964Z,9.76
2019-03-17T10:27:02.957Z,9.64
2019-03-17T10:28:02.950Z,9.61
2019-03-17T10:29:03.553Z,9.48
2019-03-17T10:30:04.353Z,9.60
2019-03-17T10:31:02.931Z,9.58
2019-03-17T10:32:02.925Z,9.50
2019-03-17T10:33:02.914Z,9.35
2019-03-17T10:34:02.918Z,9.33
2019-03-17T10:39:12.327Z,9.20
2019-03-17T10:40:06.071Z,9.14
2019-03-17T10:45:15.130Z,8.59
2019-03-17T10:46:15.008Z,8.62
2019-03-17T10:47:14.998Z,8.58
2019-03-17T10:48:14.993Z,8.66
2019-03-17T10:49:14.984Z,8.62
2019-03-17T10:50:14.989Z,8.70
2019-03-17T10:51:14.969Z,8.70
2019-03-17T10:52:14.966Z,8.73
2019-03-17T10:59:17.193Z,8.68
2019-03-17T14:43:35.883Z,10.18
2019-03-17T14:47:01.564Z,10.41
2019-03-17T14:48:01.561Z,10.51
2019-03-17T14:49:01.553Z,10.67
2019-03-17T14:50:01.552Z,10.64
2019-03-17T14:51:01.553Z,10.71
2019-03-17T14:52:01.542Z,10.71
2019-03-17T14:53:01.556Z,10.84
2019-03-17T14:54:01.548Z,10.91
2019-03-17T14:55:01.532Z,10.97
2019-03-17T14:56:01.526Z,11.06
2019-03-17T14:57:01.522Z,11.14
2019-03-17T14:58:01.518Z,11.15
2019-03-17T14:59:01.512Z,11.14
2019-03-17T15:00:01.511Z,11.14
2019-03-17T15:01:01.505Z,10.86
2019-03-17T15:02:01.560Z,10.74
2019-03-17T15:03:01.497Z,10.61
2019-03-17T15:04:01.495Z,10.55
2019-03-17T15:05:01.488Z,10.59
2019-03-17T15:06:01.494Z,10.44
2019-03-17T15:07:01.481Z,10.25
2019-03-17T15:08:01.479Z,10.15
2019-03-17T15:09:01.471Z,10.09
2019-03-17T15:10:01.470Z,10.17
2019-03-17T15:11:06.028Z,10.20
2019-03-17T15:12:01.473Z,10.17
2019-03-17T15:13:01.487Z,10.18
2019-03-17T15:14:01.454Z,10.14
2019-03-17T15:15:01.453Z,10.33
2019-03-17T15:16:03.018Z,10.29
2019-03-17T15:17:01.435Z,10.29
2019-03-17T15:18:01.432Z,10.34
2019-03-17T15:19:01.423Z,10.34
2019-03-17T15:20:01.421Z,10.34
2019-03-17T15:21:01.420Z,10.25
2019-03-17T15:22:01.421Z,10.09
2019-03-17T15:23:01.421Z,9.79
2019-03-17T15:24:01.401Z,9.76
2019-03-17T15:25:01.393Z,9.71
2019-03-17T15:26:01.391Z,9.69
2019-03-17T15:27:01.383Z,9.71
2019-03-17T15:28:01.380Z,9.84
2019-03-17T15:29:01.372Z,9.99
2019-03-17T15:30:01.369Z,10.02
2019-03-17T15:31:11.526Z,10.11
2019-03-17T15:32:01.359Z,10.12
2019-03-17T15:33:01.352Z,10.09
2019-03-17T15:34:01.349Z,9.97
2019-03-17T15:35:01.341Z,9.94
2019-03-17T15:36:01.339Z,9.99
2019-03-17T15:37:01.330Z,9.97
2019-03-17T15:38:01.327Z,9.96
2019-03-17T15:39:01.322Z,10.04
2019-03-17T15:40:01.317Z,9.99
2019-03-17T15:41:01.308Z,10.02
2019-03-17T15:42:01.305Z,9.96
2019-03-17T15:43:01.302Z,9.96
2019-03-17T15:44:01.299Z,9.84
2019-03-17T15:45:01.287Z,9.89
2019-03-17T15:46:01.283Z,9.81
2019-03-17T15:47:01.276Z,9.74
2019-03-17T15:48:04.034Z,9.76
2019-03-17T15:49:01.264Z,9.81
2019-03-17T15:50:01.261Z,9.81
2019-03-17T15:51:01.255Z,9.72
2019-03-17T15:52:01.251Z,9.58
2019-03-17T15:53:01.241Z,9.61
2019-03-17T15:54:01.242Z,9.61
2019-03-17T15:55:01.245Z,9.64
2019-03-17T15:56:01.229Z,9.47
2019-03-17T15:57:01.219Z,9.47
2019-03-17T15:58:01.216Z,8.96
2019-03-17T15:59:01.208Z,8.47
2019-03-17T16:00:01.204Z,8.23
2019-03-17T16:01:01.195Z,8.05
2019-03-17T16:02:01.270Z,8.08
2019-03-17T16:03:01.187Z,8.05
2019-03-17T16:04:01.181Z,8.02
2019-03-17T16:05:01.171Z,7.83
2019-03-17T16:06:01.417Z,7.83
2019-03-17T16:07:01.159Z,7.80
2019-03-17T16:08:01.154Z,7.82
2019-03-17T16:09:01.144Z,7.71
2019-03-17T16:10:01.157Z,7.75
2019-03-17T16:11:01.131Z,7.69
2019-03-17T16:12:01.278Z,7.67
2019-03-17T16:13:01.121Z,7.71
2019-03-17T16:14:01.112Z,7.79
2019-03-17T16:15:01.103Z,7.77
2019-03-17T16:16:01.176Z,7.85
2019-03-17T16:17:01.090Z,7.92
2019-03-17T16:18:01.083Z,7.97
2019-03-17T16:19:01.075Z,7.93
2019-03-17T16:20:01.070Z,8.02
2019-03-17T16:21:01.060Z,8.08
2019-03-17T16:22:01.055Z,8.04
2019-03-17T16:23:01.045Z,8.08
2019-03-17T16:24:01.040Z,8.15
2019-03-17T16:25:01.030Z,8.12
2019-03-17T16:26:01.026Z,8.20
2019-03-17T16:27:01.016Z,8.15
2019-03-17T16:28:01.012Z,8.23
2019-03-17T16:29:01.001Z,8.25
2019-03-17T16:30:00.996Z,8.23
2019-03-17T16:31:00.987Z,8.28
2019-03-17T16:32:00.988Z,8.18
2019-03-17T16:33:00.973Z,8.11
2019-03-17T16:34:00.967Z,8.19
2019-03-17T16:35:00.958Z,8.16
2019-03-17T16:36:00.952Z,8.07
2019-03-17T16:37:01.193Z,8.07
2019-03-17T16:38:00.937Z,8.23
2019-03-17T16:39:00.928Z,8.16
2019-03-17T16:40:00.926Z,8.18
2019-03-17T16:41:00.914Z,8.15
2019-03-17T16:42:00.910Z,8.20
2019-03-17T16:43:00.903Z,8.16
2019-03-17T16:44:00.907Z,8.19
2019-03-17T16:45:00.884Z,8.23
2019-03-17T16:46:00.880Z,8.29
2019-03-17T16:47:00.870Z,8.37
2019-03-17T16:48:00.876Z,8.40
2019-03-17T16:49:00.862Z,8.38
2019-03-17T16:50:00.866Z,8.43
2019-03-17T16:51:00.843Z,8.41
2019-03-17T16:52:00.836Z,8.43
2019-03-17T16:53:00.826Z,8.40
2019-03-17T16:54:00.821Z,8.43
2019-03-17T16:55:00.843Z,8.40
2019-03-17T16:56:00.813Z,8.41
2019-03-17T16:57:00.799Z,8.38
2019-03-17T16:58:00.794Z,8.40
2019-03-17T16:59:00.784Z,8.44
2019-03-17T17:00:00.779Z,8.44
2019-03-17T17:01:00.769Z,8.50
2019-03-17T17:02:00.971Z,8.50
2019-03-17T17:03:00.755Z,8.45
2019-03-17T17:04:00.750Z,8.55
2019-03-17T17:05:00.740Z,8.47
2019-03-17T17:06:00.740Z,8.47
2019-03-17T17:07:00.726Z,8.59
2019-03-17T17:08:00.724Z,8.52
2019-03-17T17:09:00.711Z,8.53
2019-03-17T17:10:00.706Z,8.65
2019-03-17T17:11:00.858Z,8.63
2019-03-17T17:12:00.951Z,8.65
2019-03-17T17:13:00.691Z,8.63
2019-03-17T17:14:00.695Z,8.61
2019-03-17T17:15:00.671Z,8.58
2019-03-17T17:16:00.664Z,8.71
2019-03-17T17:17:00.669Z,8.66
2019-03-17T17:18:00.649Z,8.59
2019-03-17T17:19:00.640Z,8.55
2019-03-17T17:20:00.641Z,8.55
2019-03-17T17:21:00.625Z,8.53
2019-03-17T17:22:00.629Z,8.53
2019-03-17T17:23:00.626Z,8.48
2019-03-17T17:24:00.608Z,8.50
2019-03-17T17:25:00.596Z,8.50
2019-03-17T17:26:00.592Z,8.41
2019-03-17T17:27:00.582Z,8.43
2019-03-17T17:28:00.694Z,8.40
2019-03-17T17:29:00.571Z,8.38
2019-03-17T17:30:00.571Z,8.40
2019-03-17T17:31:00.570Z,8.29
2019-03-17T17:32:00.550Z,8.26
2019-03-17T17:33:00.541Z,8.26
2019-03-17T17:34:00.534Z,8.25
2019-03-17T18:45:47.762Z,7.42
2019-03-17T18:46:47.756Z,7.34
2019-03-17T18:47:47.745Z,7.42
2019-03-17T18:48:47.741Z,7.48
2019-03-17T20:28:00.597Z,6.44
2019-03-17T20:29:00.587Z,6.44
2019-03-17T20:30:00.582Z,6.46
2019-03-17T20:31:00.579Z,6.44
2019-03-17T20:35:58.733Z,6.38
2019-03-17T20:36:58.720Z,6.36
2019-03-17T20:37:58.711Z,6.36
2019-03-17T20:38:58.703Z,6.36
2019-03-17T20:39:58.693Z,6.48
2019-03-17T20:40:58.684Z,6.40
2019-03-17T20:41:58.673Z,6.43
2019-03-17T20:42:58.678Z,6.36
2019-03-17T20:43:58.655Z,6.37
2019-03-17T20:44:58.649Z,6.43
2019-03-17T20:45:58.639Z,6.40
2019-03-17T20:46:58.630Z,6.37
2019-03-17T20:47:58.648Z,6.43
2019-03-17T20:48:58.614Z,6.44
2019-03-17T20:49:59.513Z,6.36
2019-03-17T20:50:59.945Z,6.43
2019-03-17T20:51:58.604Z,6.49
2019-03-17T20:53:58.566Z,6.36
2019-03-17T20:54:58.555Z,6.40
2019-03-17T20:55:58.564Z,6.34
2019-03-17T20:57:00.689Z,6.25
2019-03-17T20:57:58.543Z,6.34
2019-03-17T20:58:58.518Z,6.34
2019-03-17T21:09:32.274Z,6.21
2019-03-17T21:21:03.464Z,5.90
2019-03-17T21:22:03.454Z,5.86
2019-03-17T21:23:03.444Z,5.83
2019-03-17T21:37:38.885Z,5.56
